Time,TemperatureF,DewpointF,PressureIn,WindDirection,WindDirectionDegrees,WindSpeedMPH,WindSpeedGustMPH,Humidity,HourlyPrecipIn,Conditions,Clouds,dailyrainin,SoftwareType,DateUTC
2013-01-19 00:11:00,40.9,26.0,30.26,South,176,3.0,14.0,55,0.00,,,0.00,weatherlink.com 1.10,2013-01-19 05:11:00,
2013-01-19 00:26:00,41.3,25.0,30.25,SSW,212,4.0,14.0,52,0.00,,,0.00,weatherlink.com 1.10,2013-01-19 05:26:00,
2013-01-19 00:41:00,41.5,25.0,30.24,SSE,157,8.0,13.0,52,0.00,,,0.00,weatherlink.com 1.10,2013-01-19 05:41:00,
2013-01-19 00:56:00,41.6,25.0,30.24,South,178,4.0,12.0,52,0.00,,,0.00,weatherlink.com 1.10,2013-01-19 05:56:00,
2013-01-19 01:11:00,41.9,25.0,30.24,SSW,213,9.0,12.0,52,0.00,,,0.00,weatherlink.com 1.10,2013-01-19 06:11:00,
2013-01-19 01:26:00,41.9,26.0,30.23,South,184,7.0,13.0,53,0.00,,,0.00,weatherlink.com 1.10,2013-01-19 06:26:00,
2013-01-19 01:41:00,42.0,25.0,30.24,SSW,198,6.0,11.0,52,0.00,,,0.00,weatherlink.com 1.10,2013-01-19 06:41:00,
2013-01-19 01:56:00,42.1,25.0,30.24,South,183,5.0,10.0,51,0.00,,,0.00,weatherlink.com 1.10,2013-01-19 06:56:00,
2013-01-19 02:11:00,41.9,24.0,30.24,SSW,196,4.0,9.0,50,0.00,,,0.00,weatherlink.com 1.10,2013-01-19 07:11:00,
2013-01-19 02:26:00,42.4,24.0,30.24,South,175,4.0,11.0,49,0.00,,,0.00,weatherlink.com 1.10,2013-01-19 07:26:00,
2013-01-19 02:56:00,42.4,24.0,30.24,SW,219,4.0,11.0,48,0.00,,,0.00,weatherlink.com 1.10,2013-01-19 07:56:00,
2013-01-19 03:11:00,42.4,24.0,30.24,SSE,168,6.0,13.0,48,0.00,,,0.00,weatherlink.com 1.10,2013-01-19 08:11:00,
2013-01-19 03:26:00,42.3,24.0,30.24,South,183,8.0,12.0,48,0.00,,,0.00,weatherlink.com 1.10,2013-01-19 08:26:00,
2013-01-19 03:41:00,42.2,24.0,30.24,SSW,207,6.0,13.0,49,0.00,,,0.00,weatherlink.com 1.10,2013-01-19 08:41:00,
2013-01-19 03:56:00,42.4,24.0,30.24,SW,231,3.0,13.0,48,0.00,,,0.00,weatherlink.com 1.10,2013-01-19 08:56:00,
2013-01-19 04:11:00,42.3,24.0,30.24,SSW,213,3.0,10.0,48,0.00,,,0.00,weatherlink.com 1.10,2013-01-19 09:11:00,
2013-01-19 04:26:00,42.4,24.0,30.23,South,181,6.0,18.0,48,0.00,,,0.00,weatherlink.com 1.10,2013-01-19 09:26:00,
2013-01-19 04:41:00,42.3,24.0,30.23,SSW,193,6.0,15.0,49,0.00,,,0.00,weatherlink.com 1.10,2013-01-19 09:41:00,
2013-01-19 04:56:00,42.0,25.0,30.22,SSW,194,9.0,17.0,51,0.00,,,0.00,weatherlink.com 1.10,2013-01-19 09:56:00,
2013-01-19 05:11:00,41.4,25.0,30.22,SSW,200,5.0,13.0,53,0.00,,,0.00,weatherlink.com 1.10,2013-01-19 10:11:00,
2013-01-19 05:26:00,41.1,25.0,30.22,SSW,213,7.0,16.0,54,0.00,,,0.00,weatherlink.com 1.10,2013-01-19 10:26:00,
2013-01-19 05:41:00,40.6,26.0,30.22,SW,232,7.0,9.0,56,0.00,,,0.00,weatherlink.com 1.10,2013-01-19 10:41:00,
2013-01-19 05:56:00,40.5,26.0,30.22,SW,231,5.0,12.0,57,0.00,,,0.00,weatherlink.com 1.10,2013-01-19 10:56:00,
2013-01-19 06:11:00,40.2,26.0,30.21,South,190,5.0,13.0,58,0.00,,,0.00,weatherlink.com 1.10,2013-01-19 11:11:00,
2013-01-19 07:57:00,40.0,27.0,30.20,SSW,205,4.0,15.0,61,0.00,,,0.00,weatherlink.com 1.10,2013-01-19 12:57:00,
2013-01-19 08:11:00,39.7,27.0,30.20,South,187,10.0,13.0,62,0.00,,,0.00,weatherlink.com 1.10,2013-01-19 13:11:00,
2013-01-19 08:27:00,40.1,28.0,30.20,SW,227,10.0,13.0,62,0.00,,,0.00,weatherlink.com 1.10,2013-01-19 13:27:00,
2013-01-19 08:42:00,40.7,28.0,30.20,South,180,6.0,17.0,61,0.00,,,0.00,weatherlink.com 1.10,2013-01-19 13:42:00,
2013-01-19 08:57:00,41.2,29.0,30.20,SSW,201,6.0,18.0,61,0.00,,,0.00,weatherlink.com 1.10,2013-01-19 13:57:00,
2013-01-19 09:12:00,41.6,29.0,30.20,SW,232,7.0,17.0,61,0.00,,,0.00,weatherlink.com 1.10,2013-01-19 14:12:00,
2013-01-19 09:27:00,42.2,29.0,30.20,South,184,4.0,22.0,61,0.00,,,0.00,weatherlink.com 1.10,2013-01-19 14:27:00,
2013-01-19 09:42:00,43.0,30.0,30.20,SSW,194,14.0,18.0,60,0.00,,,0.00,weatherlink.com 1.10,2013-01-19 14:42:00,
2013-01-19 09:57:00,43.8,30.0,30.19,SSW,194,12.0,17.0,59,0.00,,,0.00,weatherlink.com 1.10,2013-01-19 14:57:00,
2013-01-19 10:12:00,44.5,29.0,30.19,South,169,10.0,22.0,56,0.00,,,0.00,weatherlink.com 1.10,2013-01-19 15:12:00,
2013-01-19 10:27:00,45.6,31.0,30.19,SSW,204,9.0,12.0,57,0.00,,,0.00,weatherlink.com 1.10,2013-01-19 15:27:00,
2013-01-19 10:42:00,46.1,30.0,30.18,SSW,197,8.0,17.0,54,0.00,,,0.00,weatherlink.com 1.10,2013-01-19 15:42:00,
2013-01-19 10:57:00,46.8,30.0,30.18,South,185,7.0,17.0,53,0.00,,,0.00,weatherlink.com 1.10,2013-01-19 15:57:00,
2013-01-19 11:12:00,47.7,31.0,30.17,SSW,205,8.0,19.0,52,0.00,,,0.00,weatherlink.com 1.10,2013-01-19 16:12:00,
2013-01-19 11:27:00,48.7,31.0,30.16,SW,215,5.0,16.0,50,0.00,,,0.00,weatherlink.com 1.10,2013-01-19 16:27:00,
2013-01-19 11:42:00,49.3,31.0,30.15,WSW,239,6.0,17.0,49,0.00,,,0.00,weatherlink.com 1.10,2013-01-19 16:42:00,
2013-01-19 11:57:00,50.3,31.0,30.13,SSW,193,7.0,14.0,48,0.00,,,0.00,weatherlink.com 1.10,2013-01-19 16:57:00,
2013-01-19 12:12:00,50.9,31.0,30.12,WSW,240,6.0,14.0,47,0.00,,,0.00,weatherlink.com 1.10,2013-01-19 17:12:00,
2013-01-19 13:12:00,52.2,31.0,30.07,SSE,153,9.0,23.0,45,0.00,,,0.00,weatherlink.com 1.10,2013-01-19 18:12:00,
2013-01-19 13:27:00,52.5,32.0,30.06,South,183,10.0,17.0,46,0.00,,,0.00,weatherlink.com 1.10,2013-01-19 18:27:00,
2013-01-19 13:42:00,53.4,33.0,30.05,South,177,13.0,17.0,47,0.00,,,0.00,weatherlink.com 1.10,2013-01-19 18:42:00,
2013-01-19 13:57:00,53.8,33.0,30.04,SSW,198,3.0,19.0,46,0.00,,,0.00,weatherlink.com 1.10,2013-01-19 18:57:00,
2013-01-19 14:12:00,54.0,33.0,30.03,South,188,9.0,18.0,45,0.00,,,0.00,weatherlink.com 1.10,2013-01-19 19:12:00,
2013-01-19 14:28:00,54.8,32.0,30.02,SW,215,6.0,20.0,42,0.00,,,0.00,weatherlink.com 1.10,2013-01-19 19:28:00,
2013-01-19 14:43:00,54.9,32.0,30.02,SSW,199,10.0,21.0,42,0.00,,,0.00,weatherlink.com 1.10,2013-01-19 19:43:00,
2013-01-19 14:58:00,55.0,32.0,30.01,South,180,7.0,19.0,42,0.00,,,0.00,weatherlink.com 1.10,2013-01-19 19:58:00,
2013-01-19 15:13:00,55.0,31.0,30.00,SSE,163,6.0,28.0,40,0.00,,,0.00,weatherlink.com 1.10,2013-01-19 20:13:00,
2013-01-19 15:28:00,55.4,32.0,29.98,SSW,203,15.0,21.0,41,0.00,,,0.00,weatherlink.com 1.10,2013-01-19 20:28:00,
2013-01-19 15:43:00,55.6,32.0,29.98,South,189,7.0,16.0,41,0.00,,,0.00,weatherlink.com 1.10,2013-01-19 20:43:00,
2013-01-19 15:58:00,55.6,32.0,29.98,SW,229,11.0,17.0,41,0.00,,,0.00,weatherlink.com 1.10,2013-01-19 20:58:00,
2013-01-19 16:13:00,55.5,32.0,29.97,SW,227,7.0,19.0,41,0.00,,,0.00,weatherlink.com 1.10,2013-01-19 21:13:00,
2013-01-19 16:58:00,54.5,31.0,29.96,SSW,193,12.0,20.0,41,0.00,,,0.00,weatherlink.com 1.10,2013-01-19 21:58:00,
2013-01-19 17:13:00,53.9,30.0,29.95,SSE,164,9.0,18.0,41,0.00,,,0.00,weatherlink.com 1.10,2013-01-19 22:13:00,
2013-01-19 17:28:00,53.2,30.0,29.95,SSW,194,10.0,18.0,42,0.00,,,0.00,weatherlink.com 1.10,2013-01-19 22:28:00,
2013-01-19 17:43:00,52.9,30.0,29.95,SSW,196,7.0,18.0,42,0.00,,,0.00,weatherlink.com 1.10,2013-01-19 22:43:00,
2013-01-19 17:58:00,52.2,30.0,29.95,SSE,159,9.0,15.0,43,0.00,,,0.00,weatherlink.com 1.10,2013-01-19 22:58:00,
2013-01-19 18:13:00,52.1,29.0,29.96,SSW,209,5.0,12.0,42,0.00,,,0.00,weatherlink.com 1.10,2013-01-19 23:13:00,
2013-01-19 19:13:00,50.9,31.0,29.98,SSW,203,5.0,10.0,46,0.00,,,0.00,weatherlink.com 1.10,2013-01-20 00:13:00,
2013-01-19 19:28:00,51.0,31.0,29.99,SSW,210,5.0,15.0,46,0.00,,,0.00,weatherlink.com 1.10,2013-01-20 00:28:00,
2013-01-19 19:43:00,50.8,31.0,29.99,SSE,165,4.0,12.0,46,0.00,,,0.00,weatherlink.com 1.10,2013-01-20 00:43:00,
2013-01-19 19:58:00,50.7,30.0,29.99,SSW,205,7.0,16.0,46,0.00,,,0.00,weatherlink.com 1.10,2013-01-20 00:58:00,
2013-01-19 20:28:00,50.2,31.0,29.99,SSW,192,7.0,18.0,48,0.00,,,0.00,weatherlink.com 1.10,2013-01-20 01:28:00,
2013-01-19 20:43:00,50.4,31.0,29.99,SSW,192,9.0,18.0,48,0.00,,,0.00,weatherlink.com 1.10,2013-01-20 01:43:00,
2013-01-19 20:58:00,50.1,31.0,29.99,SSW,202,9.0,22.0,49,0.00,,,0.00,weatherlink.com 1.10,2013-01-20 01:58:00,
2013-01-19 21:28:00,49.6,32.0,29.99,WSW,241,8.0,18.0,51,0.00,,,0.00,weatherlink.com 1.10,2013-01-20 02:28:00,
2013-01-19 21:43:00,49.2,32.0,29.99,SW,227,10.0,17.0,51,0.00,,,0.00,weatherlink.com 1.10,2013-01-20 02:43:00,
2013-01-19 21:58:00,48.8,32.0,29.99,SW,236,8.0,15.0,53,0.00,,,0.00,weatherlink.com 1.10,2013-01-20 02:58:00,
2013-01-19 22:28:00,48.4,33.0,30.00,South,190,7.0,16.0,55,0.00,,,0.00,weatherlink.com 1.10,2013-01-20 03:28:00,
2013-01-19 22:43:00,47.9,33.0,30.00,SW,232,11.0,24.0,56,0.00,,,0.00,weatherlink.com 1.10,2013-01-20 03:43:00,
2013-01-19 22:58:00,47.4,33.0,30.01,SSW,198,7.0,12.0,58,0.00,,,0.00,weatherlink.com 1.10,2013-01-20 03:58:00,
2013-01-19 23:13:00,47.0,34.0,30.01,SW,227,6.0,10.0,60,0.00,,,0.00,weatherlink.com 1.10,2013-01-20 04:13:00,
2013-01-19 23:28:00,46.7,34.0,30.02,WSW,241,7.0,12.0,61,0.00,,,0.00,weatherlink.com 1.10,2013-01-20 04:28:00,
2013-01-19 23:43:00,46.4,34.0,30.01,WSW,252,8.0,10.0,63,0.00,,,0.00,weatherlink.com 1.10,2013-01-20 04:43:00,
2013-01-19 23:58:00,46.2,35.0,30.01,WSW,239,2.0,8.0,64,0.00,,,0.00,weatherlink.com 1.10,2013-01-20 04:58:00,